createdAt,value
2023-04-15T00:00:37.624Z,10.33
2023-04-15T00:03:15.609Z,10.34
2023-04-15T00:05:43.997Z,10.37
2023-04-15T00:08:13.092Z,10.39
2023-04-15T00:10:44.345Z,10.41
2023-04-15T00:13:12.615Z,10.42
2023-04-15T00:15:41.405Z,10.42
2023-04-15T00:18:10.091Z,10.44
2023-04-15T00:20:38.598Z,10.44
2023-04-15T00:23:07.877Z,10.44
2023-04-15T00:25:36.154Z,10.44
2023-04-15T00:28:04.832Z,10.42
2023-04-15T00:30:33.042Z,10.40
2023-04-15T00:33:04.658Z,10.40
2023-04-15T00:35:33.043Z,10.38
2023-04-15T00:38:01.218Z,10.35
2023-04-15T00:40:29.490Z,10.28
2023-04-15T00:42:57.663Z,10.08
2023-04-15T00:45:28.251Z,9.98
2023-04-15T00:47:57.040Z,10.02
2023-04-15T00:50:25.563Z,10.01
2023-04-15T00:52:53.838Z,9.98
2023-04-15T00:55:22.835Z,9.97
2023-04-15T00:57:52.846Z,9.95
2023-04-15T01:00:21.739Z,9.93
2023-04-15T01:02:51.262Z,9.93
2023-04-15T01:05:19.823Z,9.89
2023-04-15T01:07:48.963Z,9.77
2023-04-15T01:10:17.406Z,9.68
2023-04-15T01:12:45.775Z,9.66
2023-04-15T01:15:13.948Z,9.72
2023-04-15T01:17:42.719Z,9.57
2023-04-15T01:20:12.452Z,9.51
2023-04-15T01:22:41.545Z,9.51
2023-04-15T01:25:17.916Z,9.48
2023-04-15T01:27:46.697Z,9.46
2023-04-15T01:30:15.791Z,9.46
2023-04-15T01:32:44.159Z,9.55
2023-04-15T01:35:13.366Z,9.59
2023-04-15T01:37:42.360Z,9.58
2023-04-15T01:40:11.309Z,9.61
2023-04-15T01:42:39.738Z,9.66
2023-04-15T01:45:09.027Z,9.67
2023-04-15T01:47:39.596Z,9.72
2023-04-15T01:50:08.762Z,9.73
2023-04-15T01:52:37.137Z,9.66
2023-04-15T01:55:06.412Z,9.52
2023-04-15T01:57:34.613Z,9.53
2023-04-15T02:00:04.741Z,9.60
2023-04-15T02:02:41.669Z,9.63
2023-04-15T02:05:11.220Z,9.56
2023-04-15T02:07:39.399Z,9.54
2023-04-15T02:10:08.184Z,9.49
2023-04-15T02:12:37.141Z,9.40
2023-04-15T02:15:06.472Z,9.36
2023-04-15T02:17:35.977Z,9.35
2023-04-15T02:20:08.966Z,9.35
2023-04-15T02:22:37.139Z,9.34
2023-04-15T02:25:06.296Z,9.31
2023-04-15T02:27:34.620Z,9.32
2023-04-15T02:30:03.351Z,9.32
2023-04-15T02:32:31.685Z,9.36
2023-04-15T02:35:05.750Z,9.38
2023-04-15T02:37:40.793Z,9.35
2023-04-15T02:40:12.388Z,9.27
2023-04-15T02:42:41.268Z,9.18
2023-04-15T02:45:13.244Z,9.18
2023-04-15T02:47:41.962Z,9.18
2023-04-15T02:50:13.406Z,9.16
2023-04-15T02:52:43.694Z,9.18
2023-04-15T02:55:12.795Z,9.16
2023-04-15T02:57:41.676Z,9.19
2023-04-15T03:00:12.226Z,9.27
2023-04-15T03:02:47.211Z,9.37
2023-04-15T03:05:15.780Z,9.46
2023-04-15T03:07:49.411Z,9.52
2023-04-15T03:10:18.207Z,9.59
2023-04-15T03:12:48.434Z,9.65
2023-04-15T03:15:19.574Z,9.70
2023-04-15T03:17:50.830Z,9.78
2023-04-15T03:20:19.232Z,9.84
2023-04-15T03:22:48.901Z,9.88
2023-04-15T03:25:17.413Z,9.94
2023-04-15T03:27:45.760Z,10.02
2023-04-15T03:30:14.145Z,10.04
2023-04-15T03:32:42.643Z,10.06
2023-04-15T03:35:11.002Z,10.08
2023-04-15T03:37:39.375Z,10.10
2023-04-15T03:40:08.913Z,10.09
2023-04-15T03:42:37.057Z,10.02
2023-04-15T03:45:06.768Z,9.97
2023-04-15T03:47:34.953Z,9.85
2023-04-15T03:50:03.218Z,9.78
2023-04-15T03:52:31.598Z,9.76
2023-04-15T03:54:59.871Z,9.78
2023-04-15T03:57:28.250Z,9.80
2023-04-15T03:59:56.422Z,9.83
2023-04-15T04:02:24.715Z,9.82
2023-04-15T04:04:53.129Z,9.83
2023-04-15T04:07:24.527Z,9.80
2023-04-15T04:09:53.005Z,9.77
2023-04-15T04:12:21.175Z,9.76
2023-04-15T04:14:49.452Z,9.76
2023-04-15T04:17:17.652Z,9.75
2023-04-15T04:19:46.004Z,9.75
2023-04-15T04:22:14.195Z,9.73
2023-04-15T04:24:42.451Z,9.75
2023-04-15T04:27:10.933Z,9.77
2023-04-15T04:29:39.107Z,9.83
2023-04-15T04:32:07.478Z,9.90
2023-04-15T04:34:35.864Z,9.94
2023-04-15T04:37:04.037Z,9.98
2023-04-15T04:39:32.925Z,10.06
2023-04-15T04:42:01.620Z,10.13
2023-04-15T04:44:29.894Z,10.21
2023-04-15T04:46:58.060Z,10.27
2023-04-15T04:49:26.238Z,10.28
2023-04-15T04:51:54.722Z,10.34
2023-04-15T04:54:23.924Z,10.44
2023-04-15T04:56:52.095Z,10.49
2023-04-15T04:59:20.670Z,10.54
2023-04-15T05:01:55.503Z,10.56
2023-04-15T05:04:24.278Z,10.58
2023-04-15T05:06:52.454Z,10.63
2023-04-15T05:09:20.740Z,10.63
2023-04-15T05:11:48.912Z,10.55
2023-04-15T05:14:17.493Z,10.56
2023-04-15T05:16:45.664Z,10.55
2023-04-15T05:19:13.945Z,10.62
2023-04-15T05:21:42.225Z,10.74
2023-04-15T05:24:10.791Z,10.79
2023-04-15T05:26:38.873Z,10.92
2023-04-15T05:29:07.308Z,10.97
2023-04-15T05:31:35.679Z,11.08
2023-04-15T05:34:05.465Z,11.14
2023-04-15T05:36:33.817Z,11.24
2023-04-15T05:39:02.533Z,11.32
2023-04-15T05:41:30.882Z,11.32
2023-04-15T05:43:59.261Z,11.42
2023-04-15T05:46:27.902Z,11.41
2023-04-15T05:48:56.613Z,11.45
2023-04-15T05:51:25.029Z,11.50
2023-04-15T05:53:53.390Z,11.55
2023-04-15T05:56:21.764Z,11.66
2023-04-15T05:58:51.320Z,11.82
2023-04-15T06:01:21.492Z,11.91
2023-04-15T06:03:50.377Z,11.99
2023-04-15T06:06:18.973Z,11.97
2023-04-15T06:08:47.547Z,12.03
2023-04-15T06:11:15.927Z,12.11
2023-04-15T06:13:44.108Z,12.17
2023-04-15T06:16:12.826Z,12.30
2023-04-15T06:18:41.171Z,12.50
2023-04-15T06:21:09.348Z,12.63
2023-04-15T06:23:38.028Z,12.76
2023-04-15T06:26:06.199Z,12.77
2023-04-15T06:28:34.588Z,12.76
2023-04-15T06:31:02.765Z,13.03
2023-04-15T06:33:32.013Z,13.51
2023-04-15T06:36:00.335Z,13.74
2023-04-15T06:38:28.454Z,14.63
2023-04-15T06:40:56.669Z,15.18
2023-04-15T06:43:25.108Z,15.50
2023-04-15T06:45:53.258Z,15.58
2023-04-15T06:48:22.272Z,16.06
2023-04-15T06:50:50.882Z,16.66
2023-04-15T06:53:19.030Z,17.10
2023-04-15T06:55:47.127Z,17.57
2023-04-15T06:58:15.748Z,17.97
2023-04-15T07:00:44.873Z,18.17
2023-04-15T07:03:13.378Z,17.84
2023-04-15T07:05:41.705Z,17.78
2023-04-15T07:08:09.892Z,18.27
2023-04-15T07:10:38.303Z,18.73
2023-04-15T07:13:09.006Z,18.93
2023-04-15T07:15:37.196Z,18.51
2023-04-15T07:18:05.371Z,18.45
2023-04-15T07:20:33.487Z,18.56
2023-04-15T07:23:01.722Z,18.30
2023-04-15T07:25:29.904Z,17.76
2023-04-15T07:27:58.522Z,17.53
2023-04-15T07:30:26.689Z,17.38
2023-04-15T07:32:55.076Z,16.87
2023-04-15T07:35:23.650Z,17.05
2023-04-15T07:37:52.409Z,16.75
2023-04-15T07:40:20.560Z,16.43
2023-04-15T07:42:49.686Z,16.14
2023-04-15T07:45:17.927Z,16.25
2023-04-15T07:47:46.352Z,15.64
2023-04-15T07:50:14.902Z,15.94
2023-04-15T07:52:44.115Z,15.95
2023-04-15T07:55:12.432Z,16.00
2023-04-15T07:57:42.108Z,16.08
2023-04-15T08:00:10.591Z,16.27
2023-04-15T08:02:43.594Z,16.35
2023-04-15T08:05:11.869Z,16.06
2023-04-15T08:07:40.154Z,16.09
2023-04-15T08:10:08.748Z,16.10
2023-04-15T08:12:37.289Z,15.97
2023-04-15T08:15:06.011Z,15.74
2023-04-15T08:17:34.284Z,15.49
2023-04-15T08:20:04.685Z,15.26
2023-04-15T08:22:33.456Z,15.24
2023-04-15T08:25:01.694Z,15.06
2023-04-15T08:27:29.888Z,14.93
2023-04-15T08:29:58.692Z,14.77
2023-04-15T08:32:27.371Z,14.60
2023-04-15T08:34:55.667Z,14.45
2023-04-15T08:37:24.244Z,14.33
2023-04-15T08:39:52.337Z,14.14
2023-04-15T08:42:31.783Z,13.99
2023-04-15T08:45:01.896Z,13.64
2023-04-15T08:47:34.568Z,13.60
2023-04-15T08:50:04.527Z,13.59
2023-04-15T08:52:32.760Z,13.60
2023-04-15T08:55:03.162Z,13.38
2023-04-15T08:57:32.241Z,13.21
2023-04-15T09:00:05.731Z,13.07
2023-04-15T09:02:34.838Z,13.23
2023-04-15T09:05:06.677Z,13.30
2023-04-15T09:07:36.896Z,13.28
2023-04-15T09:10:07.753Z,13.14
2023-04-15T09:12:37.072Z,13.19
2023-04-15T09:15:06.097Z,12.96
2023-04-15T09:17:34.880Z,12.87
2023-04-15T09:20:13.158Z,13.06
2023-04-15T09:22:43.123Z,13.12
2023-04-15T09:25:23.372Z,13.20
2023-04-15T09:27:53.172Z,13.32
2023-04-15T09:30:21.560Z,13.44
2023-04-15T09:32:58.153Z,13.39
2023-04-15T09:35:30.339Z,13.47
2023-04-15T09:38:10.293Z,13.57
2023-04-15T09:40:41.244Z,13.75
2023-04-15T09:43:13.254Z,13.78
2023-04-15T09:45:48.445Z,13.94
2023-04-15T09:48:22.466Z,13.91
2023-04-15T09:50:53.681Z,13.87
2023-04-15T09:53:23.334Z,13.86
2023-04-15T09:55:56.668Z,13.84
2023-04-15T09:58:29.739Z,13.88
2023-04-15T10:00:58.610Z,13.99
2023-04-15T10:03:29.723Z,13.99
2023-04-15T10:05:59.672Z,13.90
2023-04-15T10:08:33.901Z,14.23
2023-04-15T10:11:03.497Z,14.51
2023-04-15T10:13:37.515Z,14.61
2023-04-15T10:16:17.110Z,14.60
2023-04-15T10:18:48.113Z,14.35
2023-04-15T10:21:18.985Z,14.24
2023-04-15T10:23:47.515Z,13.89
2023-04-15T10:26:17.421Z,13.98
2023-04-15T10:28:49.658Z,13.93
2023-04-15T10:31:18.732Z,13.74
2023-04-15T10:33:48.906Z,13.81
2023-04-15T10:36:19.234Z,13.74
2023-04-15T10:38:47.718Z,13.68
2023-04-15T10:41:21.443Z,13.52
2023-04-15T10:43:53.168Z,13.45
2023-04-15T10:46:39.561Z,13.59
2023-04-15T10:49:15.686Z,13.56
2023-04-15T10:51:47.211Z,13.39
2023-04-15T10:54:16.700Z,13.39
2023-04-15T10:56:45.890Z,13.50
2023-04-15T10:59:17.046Z,13.40
2023-04-15T11:02:06.181Z,13.22
2023-04-15T11:04:57.752Z,13.18
2023-04-15T11:07:39.825Z,13.13
2023-04-15T11:10:14.105Z,13.07
2023-04-15T11:12:42.308Z,13.12
2023-04-15T11:15:35.464Z,13.30
2023-04-15T11:18:11.583Z,13.40
2023-04-15T11:20:48.096Z,13.40
2023-04-15T11:23:20.037Z,13.44
2023-04-15T11:25:48.957Z,13.39
2023-04-15T11:28:17.060Z,13.43
2023-04-15T11:30:45.402Z,13.38
2023-04-15T11:33:14.197Z,13.37
2023-04-15T11:35:42.771Z,13.35
2023-04-15T11:38:14.036Z,13.45
2023-04-15T11:40:46.201Z,13.49
2023-04-15T11:43:16.415Z,13.79
2023-04-15T11:45:58.631Z,14.06
2023-04-15T11:48:36.600Z,14.24
2023-04-15T11:51:07.229Z,14.52
2023-04-15T11:53:39.817Z,14.67
2023-04-15T11:56:10.390Z,14.92
2023-04-15T11:58:39.469Z,15.26
2023-04-15T12:01:08.139Z,15.34
2023-04-15T12:03:39.605Z,15.18
2023-04-15T12:06:21.008Z,15.28
2023-04-15T12:08:49.341Z,15.45
2023-04-15T12:11:17.792Z,15.48
2023-04-15T12:13:50.693Z,15.45
2023-04-15T12:16:20.072Z,15.39
2023-04-15T12:18:56.373Z,15.49
2023-04-15T12:21:26.835Z,15.51
2023-04-15T12:23:57.323Z,15.40
2023-04-15T12:26:30.177Z,15.53
2023-04-15T12:29:02.002Z,15.37
2023-04-15T12:31:30.924Z,15.55
2023-04-15T12:34:00.881Z,15.79
2023-04-15T12:36:32.010Z,15.90
2023-04-15T12:39:00.292Z,15.83
2023-04-15T12:41:28.563Z,15.85
2023-04-15T12:43:56.925Z,16.10
2023-04-15T12:46:26.056Z,16.13
2023-04-15T12:48:54.314Z,16.03
2023-04-15T12:51:22.565Z,16.09
2023-04-15T12:53:51.189Z,16.04
2023-04-15T12:56:20.063Z,16.08
2023-04-15T12:58:49.171Z,16.01
2023-04-15T13:01:17.484Z,15.93
2023-04-15T13:03:45.908Z,16.01
2023-04-15T13:06:14.175Z,15.95
2023-04-15T13:08:51.159Z,15.99
2023-04-15T13:11:26.316Z,16.05
2023-04-15T13:13:54.483Z,16.00
2023-04-15T13:16:23.906Z,16.03
2023-04-15T13:18:52.037Z,16.05
2023-04-15T13:21:20.890Z,16.20
2023-04-15T13:23:51.178Z,16.30
2023-04-15T13:26:19.652Z,16.30
2023-04-15T13:28:47.948Z,16.31
2023-04-15T13:31:16.297Z,16.36
2023-04-15T13:33:44.563Z,16.43
2023-04-15T13:36:12.726Z,16.54
2023-04-15T13:38:40.995Z,16.61
2023-04-15T13:41:09.107Z,16.60
2023-04-15T13:43:37.774Z,16.59
2023-04-15T13:46:06.000Z,16.61
2023-04-15T13:48:34.173Z,16.63
2023-04-15T13:51:02.304Z,16.60
2023-04-15T13:53:37.988Z,16.55
2023-04-15T13:56:08.562Z,16.50
2023-04-15T13:58:38.140Z,16.48
2023-04-15T14:01:07.422Z,16.45
2023-04-15T14:03:36.923Z,16.34
2023-04-15T14:06:06.615Z,16.34
2023-04-15T14:08:34.961Z,16.41
2023-04-15T14:11:03.231Z,16.47
2023-04-15T14:13:31.493Z,16.22
2023-04-15T14:16:00.013Z,16.18
2023-04-15T14:18:28.422Z,16.03
2023-04-15T14:20:57.190Z,16.06
2023-04-15T14:23:25.364Z,15.97
2023-04-15T14:25:53.671Z,16.01
2023-04-15T14:28:21.764Z,16.05
2023-04-15T14:30:50.070Z,16.03
2023-04-15T14:33:18.220Z,16.00
2023-04-15T14:35:46.627Z,16.10
2023-04-15T14:38:14.712Z,16.14
2023-04-15T14:40:43.041Z,16.21
2023-04-15T14:43:11.189Z,16.24
2023-04-15T14:45:42.060Z,16.18
2023-04-15T14:48:12.883Z,16.23
2023-04-15T14:50:41.233Z,16.24
2023-04-15T14:53:09.706Z,16.32
2023-04-15T14:55:37.866Z,16.35
2023-04-15T14:58:08.381Z,16.34
2023-04-15T15:00:42.001Z,16.35
2023-04-15T15:03:14.883Z,16.36
2023-04-15T15:05:47.396Z,16.30
2023-04-15T15:08:15.726Z,16.16
2023-04-15T15:10:48.485Z,16.04
2023-04-15T15:13:19.278Z,15.90
2023-04-15T15:15:49.815Z,15.87
2023-04-15T15:18:21.544Z,15.80
2023-04-15T15:20:50.101Z,15.76
2023-04-15T15:23:18.980Z,15.70
2023-04-15T15:25:47.802Z,15.65
2023-04-15T15:28:16.264Z,15.60
2023-04-15T15:30:44.346Z,15.60
2023-04-15T15:33:12.574Z,15.55
2023-04-15T15:35:41.242Z,15.53
2023-04-15T15:38:12.012Z,15.48
2023-04-15T15:40:40.135Z,15.48
2023-04-15T15:43:08.587Z,15.52
2023-04-15T15:45:36.755Z,15.48
2023-04-15T15:48:05.563Z,15.45
2023-04-15T15:50:34.645Z,15.42
2023-04-15T15:53:03.016Z,15.46
2023-04-15T15:55:31.489Z,15.45
2023-04-15T15:57:59.639Z,15.39
2023-04-15T16:00:27.734Z,15.36
2023-04-15T16:05:28.618Z,15.34
2023-04-15T16:07:56.835Z,15.31
2023-04-15T16:10:24.929Z,15.28
2023-04-15T16:12:53.222Z,15.24
2023-04-15T16:15:23.129Z,15.21
2023-04-15T16:17:51.553Z,15.19
2023-04-15T16:20:19.902Z,15.15
2023-04-15T16:22:48.300Z,15.08
2023-04-15T16:25:16.407Z,15.02
2023-04-15T16:27:58.740Z,14.92
2023-04-15T16:30:29.491Z,14.75
2023-04-15T16:32:57.924Z,14.62
2023-04-15T16:35:26.226Z,14.53
2023-04-15T16:37:54.399Z,14.42
2023-04-15T16:40:22.498Z,14.29
2023-04-15T16:42:51.350Z,14.19
2023-04-15T16:45:19.528Z,14.08
2023-04-15T16:47:47.758Z,14.01
2023-04-15T16:50:16.508Z,13.92
2023-04-15T16:52:44.778Z,13.80
2023-04-15T16:55:13.063Z,13.74
2023-04-15T16:58:02.184Z,13.68
2023-04-15T17:00:29.796Z,13.57
2023-04-15T17:02:58.628Z,13.47
2023-04-15T17:05:27.790Z,13.36
2023-04-15T17:07:56.050Z,13.24
2023-04-15T17:10:24.224Z,13.14
2023-04-15T17:12:53.563Z,13.08
2023-04-15T17:15:21.789Z,13.03
2023-04-15T17:17:51.156Z,12.95
2023-04-15T17:20:19.446Z,12.87
2023-04-15T17:22:49.108Z,12.76
2023-04-15T17:25:17.858Z,12.67
2023-04-15T17:27:45.959Z,12.57
2023-04-15T17:30:14.089Z,12.50
2023-04-15T17:32:42.363Z,12.42
2023-04-15T17:35:10.605Z,12.35
2023-04-15T17:37:38.888Z,12.29
2023-04-15T17:40:08.748Z,12.21
2023-04-15T17:42:37.154Z,12.17
2023-04-15T17:45:05.852Z,12.16
2023-04-15T17:47:34.105Z,12.18
2023-04-15T17:50:02.333Z,12.34
2023-04-15T17:52:30.623Z,12.38
2023-04-15T17:54:58.806Z,12.39
2023-04-15T17:57:27.028Z,12.39
2023-04-15T17:59:55.196Z,12.40
2023-04-15T18:02:23.719Z,12.43
2023-04-15T18:04:52.429Z,12.47
2023-04-15T18:07:21.006Z,12.48
2023-04-15T18:09:50.810Z,12.50
2023-04-15T18:12:19.202Z,12.54
2023-04-15T18:14:47.371Z,12.56
2023-04-15T18:17:15.951Z,12.59
2023-04-15T18:19:44.167Z,12.59
2023-04-15T18:22:12.714Z,12.57
2023-04-15T18:24:40.885Z,12.50
2023-04-15T18:27:09.162Z,12.49
2023-04-15T18:29:37.627Z,12.46
2023-04-15T18:32:06.296Z,12.42
2023-04-15T18:34:34.651Z,12.38
2023-04-15T18:37:03.455Z,12.33
2023-04-15T18:39:31.739Z,12.22
2023-04-15T18:42:00.065Z,12.18
2023-04-15T18:44:28.748Z,12.14
2023-04-15T18:46:57.111Z,12.10
2023-04-15T18:49:27.341Z,12.02
2023-04-15T18:51:55.831Z,11.90
2023-04-15T18:54:24.092Z,11.78
2023-04-15T18:56:52.241Z,11.66
2023-04-15T18:59:30.122Z,11.58
2023-04-15T19:02:00.418Z,11.44
2023-04-15T19:04:31.651Z,11.39
2023-04-15T19:07:00.023Z,11.37
2023-04-15T19:09:29.086Z,11.33
2023-04-15T19:11:57.794Z,11.29
2023-04-15T19:14:26.268Z,11.28
2023-04-15T19:16:54.950Z,11.28
2023-04-15T19:19:23.089Z,11.24
2023-04-15T19:21:53.312Z,11.23
2023-04-15T19:24:21.536Z,11.18
2023-04-15T19:26:51.298Z,11.16
2023-04-15T19:29:19.620Z,11.16
2023-04-15T19:31:47.887Z,11.14
2023-04-15T19:34:16.821Z,11.11
2023-04-15T19:36:45.055Z,11.07
2023-04-15T19:39:13.741Z,11.03
2023-04-15T19:41:41.934Z,11.01
2023-04-15T19:44:12.969Z,10.99
2023-04-15T19:46:43.750Z,10.97
2023-04-15T19:49:12.165Z,10.90
2023-04-15T19:51:41.893Z,10.88
2023-04-15T19:54:10.162Z,10.87
2023-04-15T19:56:38.326Z,10.81
2023-04-15T19:59:06.692Z,10.76
2023-04-15T20:01:35.491Z,10.74
2023-04-15T20:04:04.271Z,10.73
2023-04-15T20:06:32.829Z,10.72
2023-04-15T20:09:01.422Z,10.69
2023-04-15T20:12:46.965Z,10.62
2023-04-15T20:14:18.118Z,10.53
2023-04-15T20:16:46.245Z,10.36
2023-04-15T20:19:14.825Z,10.30
2023-04-15T20:21:43.209Z,10.22
2023-04-15T20:24:11.579Z,10.17
2023-04-15T20:26:39.872Z,10.14
2023-04-15T20:29:08.369Z,10.09
2023-04-15T20:31:39.939Z,10.04
2023-04-15T20:34:10.027Z,10.01
2023-04-15T20:36:40.107Z,9.99
2023-04-15T20:39:08.383Z,9.91
2023-04-15T20:41:36.679Z,9.90
2023-04-15T20:44:04.853Z,9.86
2023-04-15T20:46:33.048Z,9.81
2023-04-15T20:49:01.210Z,9.77
2023-04-15T20:51:33.375Z,9.75
2023-04-15T20:54:01.538Z,9.72
2023-04-15T20:56:29.719Z,9.69
2023-04-15T20:58:58.299Z,9.64
2023-04-15T21:01:26.597Z,9.62
2023-04-15T21:03:55.107Z,9.60
2023-04-15T21:06:23.436Z,9.61
2023-04-15T21:08:52.640Z,9.64
2023-04-15T21:11:40.585Z,9.65
2023-04-15T21:14:09.334Z,9.61
2023-04-15T21:16:37.447Z,9.58
2023-04-15T21:19:05.959Z,9.55
2023-04-15T21:21:34.363Z,9.54
2023-04-15T21:24:02.565Z,9.51
2023-04-15T21:26:30.858Z,9.42
2023-04-15T21:28:58.968Z,9.34
2023-04-15T21:31:27.237Z,9.29
2023-04-15T21:33:55.562Z,9.24
2023-04-15T21:36:23.739Z,9.18
2023-04-15T21:38:51.916Z,9.11
2023-04-15T21:41:20.085Z,9.09
2023-04-15T21:43:48.362Z,9.06
2023-04-15T21:46:23.292Z,9.03
2023-04-15T21:48:53.726Z,8.98
2023-04-15T21:51:22.094Z,8.91
2023-04-15T21:53:50.482Z,8.84
2023-04-15T21:56:20.798Z,8.76
2023-04-15T21:58:48.975Z,8.63
2023-04-15T22:01:17.694Z,8.49
2023-04-15T22:03:46.304Z,8.39
2023-04-15T22:06:14.722Z,8.28
2023-04-15T22:08:54.814Z,8.22
2023-04-15T22:11:30.574Z,8.18
2023-04-15T22:13:59.517Z,8.22
2023-04-15T22:16:28.443Z,8.26
2023-04-15T22:18:56.790Z,8.32
2023-04-15T22:21:25.172Z,8.35
2023-04-15T22:24:32.074Z,8.37
2023-04-15T22:26:41.848Z,8.39
2023-04-15T22:29:10.785Z,8.46
2023-04-15T22:31:39.123Z,8.52
2023-04-15T22:34:07.322Z,8.52
2023-04-15T22:36:35.604Z,8.48
2023-04-15T22:39:04.103Z,8.47
2023-04-15T22:41:32.665Z,8.47
2023-04-15T22:44:00.870Z,8.42
2023-04-15T22:46:29.254Z,8.34
2023-04-15T22:48:57.501Z,8.28
2023-04-15T22:51:29.295Z,8.23
2023-04-15T22:53:57.558Z,8.19
2023-04-15T22:56:25.912Z,8.12
2023-04-15T22:58:54.393Z,7.96
2023-04-15T23:01:22.692Z,7.85
2023-04-15T23:03:57.390Z,7.78
2023-04-15T23:06:32.643Z,7.65
2023-04-15T23:09:01.112Z,7.51
2023-04-15T23:11:29.391Z,7.47
2023-04-15T23:13:57.788Z,7.41
2023-04-15T23:16:27.535Z,7.33
2023-04-15T23:18:55.763Z,7.24
2023-04-15T23:21:25.887Z,7.17
2023-04-15T23:23:54.867Z,7.09
2023-04-15T23:26:23.037Z,7.00
2023-04-15T23:28:51.208Z,6.88
2023-04-15T23:31:19.417Z,6.80
2023-04-15T23:33:47.786Z,6.73
2023-04-15T23:36:16.358Z,6.67
2023-04-15T23:38:44.618Z,6.63
2023-04-15T23:41:12.905Z,6.59
2023-04-15T23:43:41.069Z,6.56
2023-04-15T23:46:09.403Z,6.54
2023-04-15T23:48:38.436Z,6.51
2023-04-15T23:51:06.835Z,6.49
2023-04-15T23:53:35.094Z,6.50
2023-04-15T23:56:03.576Z,6.50
2023-04-15T23:58:33.996Z,6.53
